createdAt,value
2023-02-27T00:01:17.821Z,100.00
2023-02-27T00:03:44.296Z,100.00
2023-02-27T00:06:10.918Z,100.00
2023-02-27T00:08:37.341Z,100.00
2023-02-27T00:11:03.796Z,100.00
2023-02-27T00:13:30.206Z,100.00
2023-02-27T00:15:56.642Z,100.00
2023-02-27T00:18:23.408Z,100.00
2023-02-27T00:20:49.922Z,100.00
2023-02-27T00:23:16.345Z,100.00
2023-02-27T00:25:42.749Z,100.00
2023-02-27T00:28:09.134Z,100.00
2023-02-27T00:30:35.746Z,100.00
2023-02-27T00:33:02.228Z,100.00
2023-02-27T00:35:28.609Z,100.00
2023-02-27T00:37:55.111Z,100.00
2023-02-27T00:40:21.573Z,100.00
2023-02-27T00:42:49.278Z,100.00
2023-02-27T00:45:15.657Z,100.00
2023-02-27T00:47:42.090Z,100.00
2023-02-27T00:50:09.274Z,100.00
2023-02-27T00:52:35.678Z,100.00
2023-02-27T00:55:02.363Z,100.00
2023-02-27T00:57:28.808Z,100.00
2023-02-27T00:59:55.203Z,100.00
2023-02-27T01:02:21.631Z,100.00
2023-02-27T01:04:48.133Z,100.00
2023-02-27T01:07:14.526Z,100.00
2023-02-27T01:09:40.911Z,100.00
2023-02-27T01:12:07.647Z,100.00
2023-02-27T01:14:35.305Z,100.00
2023-02-27T01:17:01.843Z,100.00
2023-02-27T01:19:28.213Z,100.00
2023-02-27T01:21:54.652Z,100.00
2023-02-27T01:24:21.864Z,100.00
2023-02-27T01:26:48.539Z,100.00
2023-02-27T01:29:15.563Z,100.00
2023-02-27T01:31:42.287Z,100.00
2023-02-27T01:34:08.717Z,100.00
2023-02-27T01:36:35.223Z,100.00
2023-02-27T01:39:01.577Z,100.00
2023-02-27T01:41:29.075Z,100.00
2023-02-27T01:44:01.464Z,100.00
2023-02-27T01:46:29.320Z,100.00
2023-02-27T01:49:00.729Z,100.00
2023-02-27T01:51:30.281Z,100.00
2023-02-27T01:53:57.240Z,100.00
2023-02-27T01:56:26.328Z,100.00
2023-02-27T01:58:57.038Z,100.00
2023-02-27T02:01:24.149Z,100.00
2023-02-27T02:03:56.401Z,100.00
2023-02-27T02:06:22.936Z,100.00
2023-02-27T02:08:51.690Z,100.00
2023-02-27T02:11:19.154Z,100.00
2023-02-27T02:13:45.855Z,100.00
2023-02-27T02:16:15.276Z,100.00
2023-02-27T02:19:06.970Z,100.00
2023-02-27T02:21:39.376Z,100.00
2023-02-27T02:24:43.429Z,100.00
2023-02-27T02:27:12.826Z,100.00
2023-02-27T02:29:39.109Z,100.00
2023-02-27T02:32:11.512Z,100.00
2023-02-27T02:35:02.785Z,100.00
2023-02-27T02:37:47.912Z,100.00
2023-02-27T02:40:38.942Z,100.00
2023-02-27T02:43:15.324Z,100.00
2023-02-27T02:46:09.974Z,100.00
2023-02-27T02:49:03.578Z,100.00
2023-02-27T02:51:41.137Z,100.00
2023-02-27T02:54:41.587Z,100.00
2023-02-27T02:57:54.355Z,100.00
2023-02-27T03:00:54.523Z,100.00
2023-02-27T03:03:33.112Z,100.00
2023-02-27T03:06:04.302Z,100.00
2023-02-27T03:08:33.703Z,100.00
2023-02-27T03:11:03.772Z,100.00
2023-02-27T03:13:53.136Z,100.00
2023-02-27T03:16:28.153Z,100.00
2023-02-27T03:19:14.523Z,100.00
2023-02-27T03:22:05.224Z,100.00
2023-02-27T03:24:49.328Z,100.00
2023-02-27T03:27:16.764Z,100.00
2023-02-27T03:30:01.312Z,100.00
2023-02-27T03:32:33.643Z,100.00
2023-02-27T03:35:00.258Z,100.00
2023-02-27T03:37:49.964Z,100.00
2023-02-27T03:40:26.161Z,100.00
2023-02-27T03:43:04.997Z,100.00
2023-02-27T03:45:39.036Z,100.00
2023-02-27T03:48:06.809Z,100.00
2023-02-27T03:50:35.020Z,100.00
2023-02-27T03:53:07.227Z,100.00
2023-02-27T03:55:34.017Z,100.00
2023-02-27T03:58:00.754Z,100.00
2023-02-27T04:00:27.842Z,100.00
2023-02-27T04:02:56.449Z,100.00
2023-02-27T04:05:23.137Z,100.00
2023-02-27T04:08:12.601Z,100.00
2023-02-27T04:11:27.104Z,100.00
2023-02-27T04:14:22.878Z,100.00
2023-02-27T04:16:55.118Z,100.00
2023-02-27T04:19:33.535Z,100.00
2023-02-27T04:22:30.607Z,100.00
2023-02-27T04:25:17.153Z,100.00
2023-02-27T04:27:56.812Z,100.00
2023-02-27T04:30:36.774Z,100.00
2023-02-27T04:33:09.827Z,100.00
2023-02-27T04:36:15.305Z,100.00
2023-02-27T04:38:46.607Z,100.00
2023-02-27T04:41:16.629Z,100.00
2023-02-27T04:43:44.295Z,100.00
2023-02-27T04:46:13.100Z,100.00
2023-02-27T04:49:09.345Z,100.00
2023-02-27T04:51:39.889Z,100.00
2023-02-27T04:54:16.324Z,100.00
2023-02-27T04:56:48.353Z,100.00
2023-02-27T04:59:17.720Z,100.00
2023-02-27T05:01:50.026Z,100.00
2023-02-27T05:04:19.141Z,100.00
2023-02-27T05:06:47.145Z,100.00
2023-02-27T05:09:31.115Z,100.00
2023-02-27T05:12:28.228Z,100.00
2023-02-27T05:15:06.598Z,100.00
2023-02-27T05:17:45.091Z,100.00
2023-02-27T05:20:12.684Z,100.00
2023-02-27T05:22:50.892Z,100.00
2023-02-27T05:25:27.198Z,100.00
2023-02-27T05:27:59.124Z,100.00
2023-02-27T05:30:53.640Z,100.00
2023-02-27T05:33:36.881Z,100.00
2023-02-27T05:36:24.930Z,100.00
2023-02-27T05:38:59.990Z,100.00
2023-02-27T05:41:28.832Z,100.00
2023-02-27T05:44:17.403Z,100.00
2023-02-27T05:46:47.904Z,100.00
2023-02-27T05:49:18.313Z,100.00
2023-02-27T05:51:48.577Z,100.00
2023-02-27T05:54:36.142Z,100.00
2023-02-27T05:57:05.656Z,100.00
2023-02-27T05:59:59.552Z,100.00
2023-02-27T06:02:26.019Z,100.00
2023-02-27T06:04:52.521Z,100.00
2023-02-27T06:07:19.066Z,100.00
2023-02-27T06:09:47.189Z,100.00
2023-02-27T06:12:13.707Z,100.00
2023-02-27T06:14:40.096Z,100.00
2023-02-27T06:17:06.584Z,100.00
2023-02-27T06:19:33.012Z,100.00
2023-02-27T06:21:59.384Z,100.00
2023-02-27T06:24:26.715Z,100.00
2023-02-27T06:26:53.414Z,100.00
2023-02-27T06:29:19.799Z,100.00
2023-02-27T06:31:46.292Z,100.00
2023-02-27T06:34:12.674Z,100.00
2023-02-27T06:36:39.219Z,100.00
2023-02-27T06:39:06.081Z,100.00
2023-02-27T06:41:32.482Z,100.00
2023-02-27T06:43:58.928Z,100.00
2023-02-27T06:46:25.707Z,100.00
2023-02-27T06:48:52.329Z,100.00
2023-02-27T06:51:18.718Z,100.00
2023-02-27T06:53:45.108Z,100.00
2023-02-27T06:56:11.493Z,100.00
2023-02-27T06:58:37.863Z,100.00
2023-02-27T07:01:04.406Z,100.00
2023-02-27T07:03:30.841Z,100.00
2023-02-27T07:05:58.438Z,100.00
2023-02-27T07:08:24.974Z,100.00
2023-02-27T07:10:51.623Z,100.00
2023-02-27T07:13:19.660Z,100.00
2023-02-27T07:15:46.551Z,100.00
2023-02-27T07:18:13.102Z,100.00
2023-02-27T07:20:40.194Z,100.00
2023-02-27T07:23:06.684Z,100.00
2023-02-27T07:25:33.114Z,100.00
2023-02-27T07:27:59.509Z,100.00
2023-02-27T07:30:26.424Z,100.00
2023-02-27T07:32:52.856Z,100.00
2023-02-27T07:35:19.431Z,100.00
2023-02-27T07:37:47.464Z,100.00
2023-02-27T07:40:14.780Z,100.00
2023-02-27T07:42:41.294Z,100.00
2023-02-27T07:45:08.796Z,100.00
2023-02-27T07:47:35.620Z,100.00
2023-02-27T07:50:02.012Z,100.00
2023-02-27T07:52:31.352Z,100.00
2023-02-27T07:54:57.786Z,100.00
2023-02-27T07:57:24.169Z,100.00
2023-02-27T07:59:50.604Z,100.00
2023-02-27T08:02:17.112Z,100.00
2023-02-27T08:04:43.750Z,100.00
2023-02-27T08:07:10.258Z,100.00
2023-02-27T08:09:36.661Z,100.00
2023-02-27T08:12:03.153Z,100.00
2023-02-27T08:14:29.617Z,100.00
2023-02-27T08:16:56.101Z,100.00
2023-02-27T08:19:22.518Z,100.00
2023-02-27T08:21:48.937Z,100.00
2023-02-27T08:24:15.339Z,100.00
2023-02-27T08:26:41.818Z,100.00
2023-02-27T08:29:08.338Z,100.00
2023-02-27T08:31:35.163Z,100.00
2023-02-27T08:34:09.806Z,100.00
2023-02-27T08:36:36.522Z,100.00
2023-02-27T08:39:02.917Z,100.00
2023-02-27T08:41:29.291Z,100.00
2023-02-27T08:43:55.738Z,100.00
2023-02-27T08:46:22.141Z,100.00
2023-02-27T08:48:48.570Z,100.00
2023-02-27T08:51:15.076Z,100.00
2023-02-27T08:53:41.446Z,100.00
2023-02-27T08:56:07.942Z,100.00
2023-02-27T08:58:35.765Z,100.00
2023-02-27T09:01:02.916Z,100.00
2023-02-27T09:03:29.540Z,100.00
2023-02-27T09:05:56.120Z,100.00
2023-02-27T09:08:23.146Z,100.00
2023-02-27T09:10:49.681Z,100.00
2023-02-27T09:13:16.111Z,100.00
2023-02-27T09:15:42.514Z,100.00
2023-02-27T09:18:09.144Z,100.00
2023-02-27T09:20:35.875Z,100.00
2023-02-27T09:23:03.349Z,100.00
2023-02-27T09:25:30.024Z,100.00
2023-02-27T09:27:56.498Z,100.00
2023-02-27T09:30:23.157Z,100.00
2023-02-27T09:32:49.932Z,100.00
2023-02-27T09:35:16.926Z,100.00
2023-02-27T09:37:43.964Z,100.00
2023-02-27T09:40:20.873Z,100.00
2023-02-27T09:42:48.737Z,100.00
2023-02-27T09:45:25.319Z,100.00
2023-02-27T09:48:14.944Z,100.00
2023-02-27T09:50:44.622Z,100.00
2023-02-27T09:53:36.025Z,100.00
2023-02-27T09:56:31.617Z,100.00
2023-02-27T09:59:20.534Z,100.00
2023-02-27T10:01:51.380Z,100.00
2023-02-27T10:04:39.146Z,100.00
2023-02-27T10:07:13.071Z,100.00
2023-02-27T10:09:51.803Z,100.00
2023-02-27T10:12:23.962Z,100.00
2023-02-27T10:14:52.026Z,97.80
2023-02-27T10:17:43.532Z,96.00
2023-02-27T10:20:34.138Z,96.71
2023-02-27T10:23:05.331Z,95.49
2023-02-27T10:25:35.010Z,96.03
2023-02-27T10:28:11.727Z,96.70
2023-02-27T10:30:38.539Z,96.48
2023-02-27T10:33:32.646Z,96.37
2023-02-27T10:36:00.780Z,96.05
2023-02-27T10:38:29.226Z,95.93
2023-02-27T10:40:57.894Z,96.29
2023-02-27T10:43:24.735Z,95.93
2023-02-27T10:45:51.239Z,96.67
2023-02-27T10:48:18.213Z,96.74
2023-02-27T10:50:52.179Z,97.90
2023-02-27T10:53:25.444Z,98.30
2023-02-27T10:56:05.588Z,97.72
2023-02-27T10:58:35.205Z,96.19
2023-02-27T11:01:06.949Z,96.11
2023-02-27T11:03:36.391Z,92.98
2023-02-27T11:06:13.636Z,91.44
2023-02-27T11:08:40.437Z,89.21
2023-02-27T11:11:09.755Z,88.32
2023-02-27T11:13:41.253Z,83.51
2023-02-27T11:16:21.289Z,81.25
2023-02-27T11:18:49.617Z,79.51
2023-02-27T11:21:23.988Z,80.75
2023-02-27T11:23:53.628Z,82.68
2023-02-27T11:26:41.084Z,84.02
2023-02-27T11:29:12.754Z,84.29
2023-02-27T11:31:39.679Z,85.88
2023-02-27T11:34:08.236Z,86.42
2023-02-27T11:36:39.909Z,86.88
2023-02-27T11:39:06.614Z,86.52
2023-02-27T11:41:34.062Z,86.64
2023-02-27T11:44:02.240Z,85.54
2023-02-27T11:46:48.310Z,85.01
2023-02-27T11:49:37.147Z,82.86
2023-02-27T11:52:14.044Z,82.57
2023-02-27T11:54:46.911Z,83.06
2023-02-27T11:57:35.009Z,83.06
2023-02-27T12:00:06.692Z,84.11
2023-02-27T12:02:43.341Z,85.21
2023-02-27T12:05:15.245Z,84.84
2023-02-27T12:07:45.921Z,84.52
2023-02-27T12:10:20.932Z,86.10
2023-02-27T12:12:51.025Z,85.12
2023-02-27T12:15:37.553Z,85.82
2023-02-27T12:18:31.925Z,85.22
2023-02-27T12:21:05.179Z,85.09
2023-02-27T12:23:50.812Z,85.38
2023-02-27T12:26:42.347Z,84.32
2023-02-27T12:29:21.088Z,82.91
2023-02-27T12:31:51.737Z,82.15
2023-02-27T12:34:21.092Z,82.19
2023-02-27T12:36:48.691Z,81.73
2023-02-27T12:39:24.667Z,81.57
2023-02-27T12:41:54.089Z,80.33
2023-02-27T12:44:43.149Z,79.98
2023-02-27T12:47:20.117Z,79.64
2023-02-27T12:50:10.351Z,79.12
2023-02-27T12:53:04.431Z,80.98
2023-02-27T12:55:38.886Z,81.35
2023-02-27T12:58:08.180Z,83.02
2023-02-27T13:00:46.197Z,83.84
2023-02-27T13:03:50.354Z,84.46
2023-02-27T13:06:28.988Z,84.98
2023-02-27T13:09:43.146Z,85.08
2023-02-27T13:12:18.591Z,83.47
2023-02-27T13:14:49.104Z,82.06
2023-02-27T13:17:19.220Z,83.21
2023-02-27T13:19:57.455Z,82.74
2023-02-27T13:22:33.089Z,81.38
2023-02-27T13:25:01.451Z,79.18
2023-02-27T13:27:33.095Z,80.47
2023-02-27T13:30:34.411Z,81.23
2023-02-27T13:33:25.084Z,80.27
2023-02-27T13:36:24.689Z,79.37
2023-02-27T13:38:53.478Z,79.15
2023-02-27T13:41:22.889Z,78.12
2023-02-27T13:43:56.600Z,76.64
2023-02-27T13:46:23.002Z,76.15
2023-02-27T13:48:53.564Z,75.91
2023-02-27T13:51:47.143Z,75.36
2023-02-27T13:54:13.424Z,75.50
2023-02-27T13:56:50.961Z,75.34
2023-02-27T13:59:27.288Z,73.58
2023-02-27T14:01:56.571Z,71.97
2023-02-27T14:04:26.107Z,71.48
2023-02-27T14:06:58.648Z,69.97
2023-02-27T14:09:25.813Z,70.52
2023-02-27T14:11:58.611Z,69.08
2023-02-27T14:14:39.827Z,69.71
2023-02-27T14:17:07.037Z,67.54
2023-02-27T14:19:42.658Z,62.94
2023-02-27T14:22:10.801Z,63.01
2023-02-27T14:25:02.582Z,62.43
2023-02-27T14:27:36.376Z,62.73
2023-02-27T14:30:07.771Z,62.14
2023-02-27T14:32:35.663Z,62.73
2023-02-27T14:35:04.364Z,61.52
2023-02-27T14:37:31.407Z,58.51
2023-02-27T14:39:59.985Z,56.91
2023-02-27T14:42:44.927Z,53.86
2023-02-27T14:45:24.478Z,54.10
2023-02-27T14:47:52.008Z,53.98
2023-02-27T14:50:21.417Z,53.62
2023-02-27T14:52:47.808Z,53.77
2023-02-27T14:55:28.510Z,53.28
2023-02-27T14:57:54.962Z,53.90
2023-02-27T15:00:36.475Z,55.41
2023-02-27T15:03:26.857Z,56.95
2023-02-27T15:05:55.366Z,57.36
2023-02-27T15:08:32.949Z,58.17
2023-02-27T15:10:59.888Z,59.21
2023-02-27T15:13:35.093Z,59.35
2023-02-27T15:16:18.627Z,59.05
2023-02-27T15:18:53.557Z,58.33
2023-02-27T15:21:21.590Z,56.94
2023-02-27T15:23:59.322Z,58.23
2023-02-27T15:26:29.942Z,59.23
2023-02-27T15:28:59.654Z,59.74
2023-02-27T15:31:28.606Z,61.05
2023-02-27T15:33:55.774Z,62.32
2023-02-27T15:36:25.192Z,63.64
2023-02-27T15:39:06.759Z,63.96
2023-02-27T15:41:33.340Z,64.38
2023-02-27T15:44:00.468Z,64.39
2023-02-27T15:46:26.962Z,64.46
2023-02-27T15:48:54.473Z,64.58
2023-02-27T15:51:20.853Z,64.79
2023-02-27T15:53:54.667Z,64.99
2023-02-27T15:56:32.962Z,64.71
2023-02-27T15:59:01.111Z,65.12
2023-02-27T16:01:32.187Z,65.05
2023-02-27T16:04:01.596Z,64.64
2023-02-27T16:06:31.398Z,64.77
2023-02-27T16:09:04.501Z,64.22
2023-02-27T16:11:37.125Z,63.74
2023-02-27T16:14:04.173Z,64.65
2023-02-27T16:16:35.957Z,65.33
2023-02-27T16:19:26.130Z,65.08
2023-02-27T16:22:11.480Z,64.04
2023-02-27T16:24:37.859Z,64.44
2023-02-27T16:27:04.353Z,64.69
2023-02-27T16:29:44.090Z,64.90
2023-02-27T16:32:23.674Z,65.81
2023-02-27T16:34:50.793Z,66.43
2023-02-27T16:37:27.566Z,66.95
2023-02-27T16:39:54.353Z,66.94
2023-02-27T16:42:20.870Z,67.60
2023-02-27T16:44:47.296Z,67.99
2023-02-27T16:47:13.718Z,68.59
2023-02-27T16:49:40.402Z,69.38
2023-02-27T16:52:09.109Z,70.03
2023-02-27T16:54:35.515Z,70.06
2023-02-27T16:57:02.397Z,70.07
2023-02-27T16:59:39.001Z,70.34
2023-02-27T17:02:09.932Z,69.95
2023-02-27T17:04:36.471Z,70.35
2023-02-27T17:07:06.389Z,70.42
2023-02-27T17:09:33.081Z,70.27
2023-02-27T17:11:59.446Z,70.41
2023-02-27T17:14:25.879Z,71.16
2023-02-27T17:16:52.327Z,71.44
2023-02-27T17:19:21.287Z,71.88
2023-02-27T17:21:47.844Z,72.58
2023-02-27T17:24:14.224Z,73.52
2023-02-27T17:26:40.633Z,73.75
2023-02-27T17:29:08.403Z,73.38
2023-02-27T17:31:34.870Z,73.35
2023-02-27T17:34:03.672Z,73.72
2023-02-27T17:36:30.441Z,73.57
2023-02-27T17:38:58.003Z,73.29
2023-02-27T17:41:24.764Z,72.91
2023-02-27T17:43:53.500Z,73.01
2023-02-27T17:46:19.955Z,73.59
2023-02-27T17:48:46.701Z,73.93
2023-02-27T17:51:14.430Z,74.87
2023-02-27T17:53:41.000Z,75.01
2023-02-27T17:56:08.435Z,75.66
2023-02-27T17:58:35.559Z,75.97
2023-02-27T18:01:13.473Z,76.41
2023-02-27T18:03:40.593Z,76.60
2023-02-27T18:06:07.421Z,76.14
2023-02-27T18:08:34.133Z,76.73
2023-02-27T18:11:00.731Z,77.88
2023-02-27T18:13:28.113Z,78.22
2023-02-27T18:15:55.332Z,78.45
2023-02-27T18:18:22.482Z,78.50
2023-02-27T18:20:59.704Z,79.02
2023-02-27T18:23:26.117Z,80.09
2023-02-27T18:25:56.286Z,79.84
2023-02-27T18:28:22.959Z,81.22
2023-02-27T18:30:49.511Z,81.31
2023-02-27T18:33:15.939Z,81.99
2023-02-27T18:35:42.403Z,82.60
2023-02-27T18:38:08.807Z,83.84
2023-02-27T18:40:35.192Z,83.97
2023-02-27T18:43:01.596Z,83.59
2023-02-27T18:45:29.619Z,83.45
2023-02-27T18:47:56.088Z,83.78
2023-02-27T18:50:22.855Z,83.30
2023-02-27T18:52:50.066Z,82.58
2023-02-27T18:55:17.520Z,82.16
2023-02-27T18:57:44.993Z,82.08
2023-02-27T19:00:12.544Z,82.16
2023-02-27T19:02:41.752Z,81.69
2023-02-27T19:05:10.992Z,81.23
2023-02-27T19:07:38.633Z,80.73
2023-02-27T19:10:07.280Z,79.94
2023-02-27T19:12:33.693Z,80.39
2023-02-27T19:15:00.105Z,81.54
2023-02-27T19:17:26.498Z,82.74
2023-02-27T19:19:53.431Z,82.21
2023-02-27T19:22:20.099Z,82.14
2023-02-27T19:24:46.957Z,81.34
2023-02-27T19:27:13.657Z,81.63
2023-02-27T19:29:40.068Z,81.71
2023-02-27T19:32:08.214Z,83.27
2023-02-27T19:34:34.655Z,83.70
2023-02-27T19:37:01.029Z,83.96
2023-02-27T19:39:27.439Z,83.96
2023-02-27T19:41:53.809Z,83.59
2023-02-27T19:44:20.203Z,84.57
2023-02-27T19:46:51.224Z,84.75
2023-02-27T19:49:17.963Z,85.29
2023-02-27T19:51:44.447Z,86.58
2023-02-27T19:54:15.454Z,87.16
2023-02-27T19:56:42.374Z,89.03
2023-02-27T19:59:10.841Z,90.09
2023-02-27T20:01:38.823Z,91.68
2023-02-27T20:04:06.561Z,92.72
2023-02-27T20:06:41.595Z,91.58
2023-02-27T20:09:10.308Z,90.54
2023-02-27T20:11:36.727Z,91.14
2023-02-27T20:14:04.178Z,91.34
2023-02-27T20:16:35.406Z,91.10
2023-02-27T20:19:06.792Z,89.85
2023-02-27T20:21:33.787Z,89.01
2023-02-27T20:24:00.789Z,87.96
2023-02-27T20:26:32.471Z,87.61
2023-02-27T20:29:05.572Z,87.83
2023-02-27T20:31:35.133Z,88.45
2023-02-27T20:34:02.170Z,88.65
2023-02-27T20:36:28.656Z,90.75
2023-02-27T20:38:55.552Z,90.87
2023-02-27T20:41:22.797Z,90.89
2023-02-27T20:43:49.602Z,90.39
2023-02-27T20:46:19.924Z,90.89
2023-02-27T20:48:46.879Z,92.14
2023-02-27T20:51:24.388Z,93.78
2023-02-27T20:53:52.859Z,96.73
2023-02-27T20:56:27.281Z,99.98
2023-02-27T20:58:53.743Z,100.00
2023-02-27T21:01:20.449Z,100.00
2023-02-27T21:03:50.336Z,100.00
2023-02-27T21:06:17.555Z,100.00
2023-02-27T21:08:46.951Z,100.00
2023-02-27T21:11:16.535Z,100.00
2023-02-27T21:13:44.042Z,100.00
2023-02-27T21:16:10.977Z,100.00
2023-02-27T21:18:38.021Z,100.00
2023-02-27T21:21:06.334Z,100.00
2023-02-27T21:23:33.255Z,100.00
2023-02-27T21:25:59.784Z,100.00
2023-02-27T21:28:26.207Z,100.00
2023-02-27T21:30:54.418Z,99.62
2023-02-27T21:33:22.249Z,99.58
2023-02-27T21:35:48.892Z,98.81
2023-02-27T21:38:16.332Z,99.13
2023-02-27T21:40:42.976Z,99.51
2023-02-27T21:43:09.632Z,100.00
2023-02-27T21:45:41.361Z,100.00
2023-02-27T21:48:08.151Z,100.00
2023-02-27T21:50:35.857Z,100.00
2023-02-27T21:53:02.245Z,100.00
2023-02-27T21:55:28.639Z,100.00
2023-02-27T21:57:55.009Z,100.00
2023-02-27T22:00:23.064Z,100.00
2023-02-27T22:02:49.588Z,100.00
2023-02-27T22:05:15.988Z,100.00
2023-02-27T22:07:42.424Z,100.00
2023-02-27T22:10:09.617Z,100.00
2023-02-27T22:12:36.032Z,100.00
2023-02-27T22:15:03.026Z,100.00
2023-02-27T22:17:29.440Z,100.00
2023-02-27T22:19:55.841Z,100.00
2023-02-27T22:22:22.213Z,100.00
2023-02-27T22:24:48.614Z,100.00
2023-02-27T22:27:15.211Z,100.00
2023-02-27T22:29:43.053Z,100.00
2023-02-27T22:32:09.571Z,100.00
2023-02-27T22:34:36.008Z,100.00
2023-02-27T22:37:02.396Z,100.00
2023-02-27T22:39:28.784Z,100.00
2023-02-27T22:41:56.835Z,100.00
2023-02-27T22:44:23.359Z,100.00
2023-02-27T22:46:50.056Z,100.00
2023-02-27T22:49:21.477Z,100.00
2023-02-27T22:51:50.844Z,100.00
2023-02-27T22:54:18.182Z,100.00
2023-02-27T22:56:44.679Z,100.00
2023-02-27T22:59:11.085Z,100.00
2023-02-27T23:01:37.894Z,100.00
2023-02-27T23:04:07.123Z,100.00
2023-02-27T23:06:37.033Z,100.00
2023-02-27T23:09:05.134Z,100.00
2023-02-27T23:11:31.859Z,100.00
2023-02-27T23:13:58.440Z,100.00
2023-02-27T23:16:25.073Z,100.00
2023-02-27T23:18:55.595Z,100.00
2023-02-27T23:21:30.184Z,100.00
2023-02-27T23:23:57.982Z,100.00
2023-02-27T23:26:28.365Z,100.00
2023-02-27T23:28:55.603Z,99.36
2023-02-27T23:31:22.284Z,98.77
2023-02-27T23:33:48.756Z,98.21
2023-02-27T23:36:15.415Z,98.48
2023-02-27T23:38:42.905Z,100.00
2023-02-27T23:41:09.850Z,100.00
2023-02-27T23:43:54.871Z,100.00
2023-02-27T23:46:21.769Z,100.00
2023-02-27T23:48:48.322Z,100.00
2023-02-27T23:51:15.176Z,100.00
2023-02-27T23:53:42.625Z,100.00
2023-02-27T23:56:13.404Z,100.00
2023-02-27T23:58:39.820Z,100.00
